Time;durP1;ratioP1;P1;durP2;ratioP2;P2;SDS_P1;SDS_P2;PMS_P1;PMS_P2;Temp;Humidity;BMP_temperature;BMP_pressure;BME280_temperature;BME280_humidity;BME280_pressure;Samples;Min_cycle;Max_cycle;Signal;HPM_P1;HPM_P2
2022/04/13 00:01:30;;;;;;;0.10;0.10;;;14.30;99.90;;;;;;5013589;28;20034;-64
2022/04/13 00:03:55;;;;;;;0.55;0.55;;;14.10;99.90;;;;;;5013614;28;20034;-64
2022/04/13 00:06:21;;;;;;;0.35;0.20;;;13.90;99.90;;;;;;4995383;28;20544;-64
2022/04/13 00:08:47;;;;;;;0.80;0.45;;;13.80;99.90;;;;;;5013719;28;20037;-64
2022/04/13 00:11:13;;;;;;;0.80;0.77;;;13.90;99.90;;;;;;5013750;28;20030;-64
2022/04/13 00:13:40;;;;;;;0.10;0.10;;;13.90;99.90;;;;;;5013729;28;20033;-64
2022/04/13 00:16:07;;;;;;;0.00;0.00;;;13.90;99.90;;;;;;4995782;28;20495;-64
2022/04/13 00:18:33;;;;;;;0.65;0.65;;;13.90;99.90;;;;;;5013058;28;20057;-64
2022/04/13 00:20:59;;;;;;;0.77;0.25;;;14.10;99.90;;;;;;4995838;28;20034;-63
2022/04/13 00:23:25;;;;;;;0.22;0.17;;;14.20;99.90;;;;;;5013050;28;20049;-64
2022/04/13 00:25:51;;;;;;;1.50;1.40;;;14.00;99.90;;;;;;5013182;28;20450;-65
2022/04/13 00:28:16;;;;;;;0.63;0.63;;;14.00;99.90;;;;;;4995350;28;20040;-64
2022/04/13 00:30:42;;;;;;;0.00;0.00;;;14.10;99.90;;;;;;5013232;28;20425;-64
2022/04/13 00:33:08;;;;;;;0.15;0.15;;;14.10;99.90;;;;;;5013708;28;20044;-65
2022/04/13 00:35:34;;;;;;;0.30;0.30;;;14.10;99.90;;;;;;4995288;28;20061;-65
2022/04/13 00:38:00;;;;;;;0.00;0.00;;;14.10;99.90;;;;;;5012236;28;20443;-65
2022/04/13 00:40:26;;;;;;;0.00;0.00;;;14.20;99.90;;;;;;5013011;28;20120;-65
2022/04/13 00:42:52;;;;;;;0.13;0.13;;;14.20;99.90;;;;;;5012887;28;20108;-65
2022/04/13 00:45:17;;;;;;;0.00;0.00;;;14.10;99.90;;;;;;5013025;28;20053;-65
2022/04/13 00:47:47;;;;;;;2.72;0.35;;;14.00;99.90;;;;;;4978857;28;20041;-64
2022/04/13 00:50:13;;;;;;;0.10;0.10;;;13.90;99.90;;;;;;4995259;28;20500;-64
2022/04/13 00:52:44;;;;;;;0.20;0.20;;;13.90;99.90;;;;;;4995023;28;20038;-64
2022/04/13 00:55:13;;;;;;;0.05;0.05;;;13.70;99.90;;;;;;5012721;28;20025;-66
2022/04/13 00:57:42;;;;;;;6.35;2.47;;;13.40;99.90;;;;;;4995148;28;20038;-64
2022/04/13 01:00:10;;;;;;;0.08;0.08;;;13.30;99.90;;;;;;5012610;28;20029;-64
2022/04/13 01:02:41;;;;;;;4.13;0.43;;;13.30;99.90;;;;;;5012010;28;20557;-64
2022/04/13 01:07:41;;;;;;;0.20;0.20;;;13.30;99.90;;;;;;4984676;28;20058;-64
2022/04/13 01:10:07;;;;;;;0.10;0.10;;;13.40;99.90;;;;;;4975280;28;20030;-64
2022/04/13 01:12:34;;;;;;;1.65;1.15;;;13.30;99.90;;;;;;4992553;28;20034;-64
2022/04/13 01:15:00;;;;;;;0.98;0.90;;;13.40;99.90;;;;;;4971281;28;20026;-64
2022/04/13 01:17:29;;;;;;;0.10;0.10;;;13.50;99.90;;;;;;4972366;28;20080;-64
2022/04/13 01:19:56;;;;;;;0.30;0.30;;;13.70;99.90;;;;;;4940224;28;20038;-64
2022/04/13 01:22:28;;;;;;;0.15;0.15;;;13.50;99.90;;;;;;4973147;28;20023;-65
2022/04/13 01:24:53;;;;;;;0.10;0.10;;;13.50;99.90;;;;;;4970973;28;20034;-64
2022/04/13 01:27:19;;;;;;;0.65;0.65;;;13.30;99.90;;;;;;4974671;28;20030;-64
2022/04/13 01:29:48;;;;;;;0.28;0.28;;;13.30;99.90;;;;;;4992436;28;20037;-64
2022/04/13 01:32:16;;;;;;;0.95;0.75;;;13.20;99.90;;;;;;4975254;28;20030;-64
2022/04/13 01:34:50;;;;;;;1.20;1.08;;;12.80;99.90;;;;;;4992148;28;20026;-64
2022/04/13 01:37:17;;;;;;;0.00;0.00;;;12.90;99.90;;;;;;4991622;28;20561;-64
2022/04/13 01:39:43;;;;;;;0.00;0.00;;;12.90;99.90;;;;;;4975030;28;20062;-65
2022/04/13 01:42:12;;;;;;;0.30;0.30;;;12.80;99.90;;;;;;4960568;28;20034;-64
2022/04/13 01:44:41;;;;;;;0.20;0.20;;;12.50;99.90;;;;;;4977635;28;20027;-64
2022/04/13 01:47:09;;;;;;;0.10;0.10;;;12.60;99.90;;;;;;4953976;28;20121;-64
2022/04/13 01:49:37;;;;;;;3.00;0.50;;;12.60;99.90;;;;;;4970918;28;20026;-64
2022/04/13 01:52:05;;;;;;;0.10;0.10;;;12.70;99.90;;;;;;4972065;28;20126;-64
2022/04/13 01:54:31;;;;;;;0.20;0.20;;;12.80;99.90;;;;;;4972054;28;20046;-65
2022/04/13 01:56:59;;;;;;;0.40;0.40;;;12.80;99.90;;;;;;4954513;28;20474;-64
2022/04/13 01:59:25;;;;;;;0.05;0.05;;;12.90;99.90;;;;;;4954623;28;20026;-64
2022/04/13 02:01:51;;;;;;;0.20;0.20;;;12.80;99.90;;;;;;4972413;28;20027;-64
2022/04/13 02:04:25;;;;;;;0.00;0.00;;;12.80;99.90;;;;;;4955092;28;20215;-64
2022/04/13 02:06:52;;;;;;;0.80;0.80;;;12.80;99.90;;;;;;4954958;28;20039;-64
2022/04/13 02:09:18;;;;;;;0.10;0.10;;;12.80;99.90;;;;;;4955194;28;20054;-64
2022/04/13 02:11:45;;;;;;;0.03;0.03;;;12.90;99.90;;;;;;4954926;28;20049;-64
2022/04/13 02:14:12;;;;;;;1.25;0.55;;;12.90;99.90;;;;;;4971972;28;20460;-65
2022/04/13 02:16:38;;;;;;;0.20;0.20;;;12.90;99.90;;;;;;4991539;28;20061;-64
2022/04/13 02:19:07;;;;;;;0.52;0.40;;;13.10;99.90;;;;;;4991526;28;20117;-64
2022/04/13 02:21:35;;;;;;;0.57;0.47;;;13.00;99.90;;;;;;4974442;28;20026;-64
2022/04/13 02:24:01;;;;;;;0.35;0.35;;;13.00;99.90;;;;;;4991573;28;20379;-64
2022/04/13 02:26:27;;;;;;;0.35;0.35;;;12.80;99.90;;;;;;4957707;28;20029;-64
2022/04/13 02:28:55;;;;;;;3.53;0.55;;;12.50;99.90;;;;;;4991644;28;20089;-65
2022/04/13 02:31:22;;;;;;;1.77;0.68;;;12.50;99.90;;;;;;4974375;28;20030;-64
2022/04/13 02:33:51;;;;;;;0.17;0.17;;;12.40;99.90;;;;;;4974058;28;20034;-65
2022/04/13 02:36:17;;;;;;;0.75;0.75;;;12.20;99.90;;;;;;4990976;28;20041;-65
2022/04/13 02:38:42;;;;;;;0.00;0.00;;;12.20;99.90;;;;;;4973631;28;20035;-64
2022/04/13 02:41:08;;;;;;;0.13;0.13;;;12.20;99.90;;;;;;4973857;28;20026;-65
2022/04/13 02:43:34;;;;;;;0.00;0.00;;;12.20;99.90;;;;;;4991435;28;20034;-64
2022/04/13 02:46:00;;;;;;;0.15;0.15;;;12.10;99.90;;;;;;4991317;28;20026;-65
2022/04/13 02:48:26;;;;;;;1.33;0.80;;;12.10;99.90;;;;;;4991067;28;20064;-65
2022/04/13 02:50:52;;;;;;;0.15;0.15;;;11.80;99.90;;;;;;4990868;28;20489;-64
2022/04/13 02:53:19;;;;;;;0.30;0.28;;;11.70;99.90;;;;;;4991128;28;20038;-64
2022/04/13 02:55:45;;;;;;;0.20;0.20;;;11.70;99.90;;;;;;4973484;28;20437;-64
2022/04/13 02:58:10;;;;;;;0.35;0.35;;;11.70;99.90;;;;;;4973132;28;20061;-64
2022/04/13 03:00:36;;;;;;;0.17;0.17;;;11.70;99.90;;;;;;4995463;28;20061;-64
2022/04/13 03:03:02;;;;;;;0.10;0.10;;;11.80;99.90;;;;;;4979609;28;20034;-64
2022/04/13 03:05:32;;;;;;;0.03;0.03;;;11.90;99.90;;;;;;4979900;28;20034;-65
2022/04/13 03:07:57;;;;;;;0.40;0.40;;;12.00;99.90;;;;;;4997246;28;20026;-64
2022/04/13 03:10:23;;;;;;;0.05;0.05;;;12.10;99.90;;;;;;4997783;28;20360;-64
2022/04/13 03:12:49;;;;;;;0.10;0.10;;;12.10;99.90;;;;;;4980040;28;20501;-65
2022/04/13 03:15:15;;;;;;;0.13;0.13;;;12.10;99.90;;;;;;4971868;28;20035;-64
2022/04/13 03:17:41;;;;;;;0.35;0.35;;;12.20;99.90;;;;;;4977637;28;20475;-64
2022/04/13 03:20:08;;;;;;;0.28;0.28;;;12.20;99.90;;;;;;4978109;28;20054;-64
2022/04/13 03:22:34;;;;;;;0.20;0.20;;;12.30;99.90;;;;;;4944601;28;20661;-64
2022/04/13 03:25:00;;;;;;;0.00;0.00;;;12.30;99.90;;;;;;4977831;28;20035;-64
2022/04/13 03:27:26;;;;;;;0.60;0.60;;;12.40;99.90;;;;;;4977372;28;20062;-64
2022/04/13 03:29:52;;;;;;;0.10;0.10;;;12.40;99.90;;;;;;4960459;28;20073;-64
2022/04/13 03:32:17;;;;;;;0.08;0.08;;;12.30;99.90;;;;;;4960814;28;20046;-64
2022/04/13 03:34:43;;;;;;;0.38;0.38;;;11.90;99.90;;;;;;4977799;28;20093;-64
2022/04/13 03:37:09;;;;;;;0.75;0.75;;;11.70;99.90;;;;;;4977335;28;20035;-64
2022/04/13 03:39:35;;;;;;;1.02;0.95;;;11.70;99.90;;;;;;4977510;28;20031;-64
2022/04/13 03:42:00;;;;;;;0.60;0.60;;;11.60;99.90;;;;;;4977950;28;20030;-64
2022/04/13 03:44:26;;;;;;;0.57;0.40;;;11.40;99.90;;;;;;4982476;28;20037;-64
2022/04/13 03:46:52;;;;;;;0.00;0.00;;;11.30;99.90;;;;;;4978163;28;20459;-64
2022/04/13 03:49:17;;;;;;;0.00;0.00;;;11.40;99.90;;;;;;4997095;28;20084;-64
2022/04/13 03:51:43;;;;;;;0.05;0.05;;;11.40;99.90;;;;;;5011471;28;20038;-64
2022/04/13 03:54:09;;;;;;;0.10;0.10;;;11.40;99.90;;;;;;5004505;28;20038;-63
2022/04/13 03:56:36;;;;;;;0.17;0.17;;;11.20;99.90;;;;;;4996254;28;20034;-63
2022/04/13 03:59:09;;;;;;;0.22;0.22;;;11.10;99.90;;;;;;4979287;28;20030;-63
2022/04/13 04:01:35;;;;;;;0.20;0.20;;;11.10;99.90;;;;;;4986968;28;20031;-63
2022/04/13 04:04:02;;;;;;;0.20;0.20;;;11.00;99.90;;;;;;4969793;28;20033;-63
2022/04/13 04:06:27;;;;;;;0.20;0.20;;;11.10;99.90;;;;;;4984958;28;20026;-63
2022/04/13 04:08:53;;;;;;;0.10;0.10;;;11.10;99.90;;;;;;4991213;28;20100;-63
2022/04/13 04:11:19;;;;;;;0.10;0.10;;;11.10;99.90;;;;;;4994215;28;20050;-64
2022/04/13 04:13:44;;;;;;;0.00;0.00;;;11.00;99.90;;;;;;4976031;28;20034;-63
2022/04/13 04:16:10;;;;;;;0.20;0.20;;;11.00;99.90;;;;;;4977819;28;20407;-63
2022/04/13 04:18:37;;;;;;;0.43;0.43;;;10.60;99.90;;;;;;4997161;28;20137;-63
2022/04/13 04:21:02;;;;;;;0.10;0.10;;;10.50;99.90;;;;;;5013267;28;20022;-63
2022/04/13 04:23:28;;;;;;;0.10;0.10;;;10.60;99.90;;;;;;4995366;28;20033;-63
2022/04/13 04:25:54;;;;;;;6.03;1.65;;;10.60;99.90;;;;;;5013504;28;20056;-63
2022/04/13 04:28:20;;;;;;;0.50;0.50;;;10.50;99.90;;;;;;5012547;28;20121;-63
2022/04/13 04:30:45;;;;;;;0.10;0.10;;;10.40;99.90;;;;;;5012826;28;20030;-63
2022/04/13 04:33:16;;;;;;;6.35;3.33;;;10.30;99.90;;;;;;5012603;28;20103;-63
2022/04/13 04:35:46;;;;;;;0.32;0.32;;;10.40;99.90;;;;;;4979626;28;20038;-64
2022/04/13 04:38:12;;;;;;;2.03;1.92;;;10.20;99.90;;;;;;4995477;28;20030;-63
2022/04/13 04:40:38;;;;;;;0.82;0.82;;;10.30;99.90;;;;;;5011757;28;20048;-63
2022/04/13 04:43:03;;;;;;;1.40;1.30;;;10.40;99.90;;;;;;5012932;28;20030;-63
2022/04/13 04:45:29;;;;;;;2.58;2.15;;;10.20;99.90;;;;;;5013279;28;20041;-63
2022/04/13 04:47:57;;;;;;;5.00;1.10;;;10.30;99.90;;;;;;5012636;28;20026;-64
2022/04/13 04:50:23;;;;;;;3.08;1.52;;;10.30;99.90;;;;;;4994576;28;20512;-64
2022/04/13 04:52:50;;;;;;;0.10;0.10;;;10.40;99.90;;;;;;4995171;28;20045;-64
2022/04/13 04:55:18;;;;;;;0.50;0.50;;;10.10;99.90;;;;;;5012186;28;20041;-66
2022/04/13 04:57:44;;;;;;;0.20;0.20;;;10.00;99.90;;;;;;5011905;28;20045;-67
2022/04/13 05:00:14;;;;;;;0.80;0.80;;;10.00;99.90;;;;;;4994923;28;20648;-67
2022/04/13 05:02:40;;;;;;;0.03;0.03;;;10.20;99.90;;;;;;4995062;28;20045;-64
2022/04/13 05:05:07;;;;;;;0.00;0.00;;;10.20;99.90;;;;;;5004788;28;20030;-64
2022/04/13 05:07:33;;;;;;;0.57;0.57;;;10.30;99.90;;;;;;4975354;28;20073;-65
2022/04/13 05:10:00;;;;;;;0.00;0.00;;;10.40;99.90;;;;;;4990803;28;20094;-64
2022/04/13 05:12:27;;;;;;;0.15;0.15;;;10.50;99.90;;;;;;4975061;28;20487;-64
2022/04/13 05:14:54;;;;;;;0.00;0.00;;;10.30;99.90;;;;;;4987122;28;20022;-64
2022/04/13 05:17:22;;;;;;;0.70;0.35;;;10.30;99.90;;;;;;4975094;28;20058;-64
2022/04/13 05:19:47;;;;;;;0.00;0.00;;;10.50;99.90;;;;;;5011906;28;20033;-64
2022/04/13 05:22:15;;;;;;;2.30;0.82;;;10.50;99.90;;;;;;5011204;28;20513;-64
2022/04/13 05:24:42;;;;;;;0.75;0.75;;;10.50;99.90;;;;;;5010987;28;20022;-64
2022/04/13 05:27:08;;;;;;;0.20;0.20;;;10.60;99.90;;;;;;5011295;28;20041;-64
2022/04/13 05:29:34;;;;;;;0.05;0.05;;;10.60;99.90;;;;;;4994311;28;20026;-64
2022/04/13 05:32:00;;;;;;;0.30;0.30;;;10.80;99.90;;;;;;5010458;28;20038;-64
2022/04/13 05:34:26;;;;;;;0.43;0.43;;;10.80;99.90;;;;;;5011835;28;20073;-65
2022/04/13 05:36:51;;;;;;;0.00;0.00;;;10.70;99.90;;;;;;5011425;28;20061;-65
2022/04/13 05:39:17;;;;;;;0.10;0.10;;;10.70;99.90;;;;;;5011760;28;20041;-64
2022/04/13 05:41:43;;;;;;;0.55;0.55;;;10.70;99.90;;;;;;5011838;28;20429;-65
2022/04/13 05:44:09;;;;;;;0.13;0.13;;;10.90;99.90;;;;;;5011438;28;20022;-65
2022/04/13 05:46:34;;;;;;;0.80;0.80;;;10.90;99.90;;;;;;5010873;28;20057;-64
2022/04/13 05:49:01;;;;;;;0.20;0.20;;;10.90;99.90;;;;;;5011390;28;20133;-64
2022/04/13 05:51:26;;;;;;;0.30;0.30;;;10.90;99.90;;;;;;5011592;28;20132;-65
2022/04/13 05:53:52;;;;;;;0.20;0.20;;;11.00;99.90;;;;;;5011503;28;20112;-64
2022/04/13 05:56:18;;;;;;;3.42;0.95;;;11.10;99.90;;;;;;4992147;28;20038;-64
2022/04/13 05:58:43;;;;;;;0.10;0.10;;;11.10;99.90;;;;;;4974498;28;20038;-64
2022/04/13 06:01:10;;;;;;;1.83;1.45;;;11.20;99.90;;;;;;4989946;28;20034;-65
2022/04/13 06:03:35;;;;;;;0.57;0.57;;;11.30;99.90;;;;;;4974239;28;20103;-65
2022/04/13 06:06:01;;;;;;;1.25;1.17;;;11.40;99.90;;;;;;4991632;28;20122;-64
2022/04/13 06:08:27;;;;;;;0.85;0.85;;;11.50;99.90;;;;;;4974371;28;20035;-64
2022/04/13 06:10:53;;;;;;;0.10;0.10;;;11.70;99.90;;;;;;4974412;28;20061;-63
2022/04/13 06:13:18;;;;;;;0.00;0.00;;;11.80;99.90;;;;;;4991550;28;20049;-64
2022/04/13 06:15:44;;;;;;;0.00;0.00;;;11.80;99.90;;;;;;4991262;28;20042;-64
2022/04/13 06:18:11;;;;;;;1.65;0.98;;;11.90;99.90;;;;;;4999305;28;20026;-64
2022/04/13 06:20:37;;;;;;;0.60;0.50;;;12.00;99.90;;;;;;5011390;28;20026;-64
2022/04/13 06:23:03;;;;;;;0.00;0.00;;;12.10;99.90;;;;;;4993692;28;20036;-64
2022/04/13 06:25:29;;;;;;;1.13;0.98;;;12.20;99.90;;;;;;5011066;28;20042;-63
2022/04/13 06:27:55;;;;;;;0.80;0.80;;;12.20;99.90;;;;;;5010321;28;20038;-63
2022/04/13 06:30:21;;;;;;;1.50;0.80;;;12.20;99.90;;;;;;4993288;28;20034;-64
2022/04/13 06:32:47;;;;;;;0.00;0.00;;;12.30;99.90;;;;;;5010783;28;20038;-64
2022/04/13 06:35:16;;;;;;;0.52;0.52;;;12.50;99.90;;;;;;5010611;28;20030;-64
2022/04/13 06:37:46;;;;;;;0.20;0.20;;;12.60;99.90;;;;;;5010540;28;20119;-62
2022/04/13 06:40:14;;;;;;;0.80;0.80;;;12.80;99.90;;;;;;4993503;28;20030;-63
2022/04/13 06:42:40;;;;;;;1.00;0.57;;;13.00;99.90;;;;;;5009511;28;20104;-63
2022/04/13 06:45:10;;;;;;;0.73;0.73;;;13.20;99.90;;;;;;4993108;28;20080;-63
2022/04/13 06:47:39;;;;;;;0.10;0.10;;;13.30;99.90;;;;;;5010322;28;20029;-63
2022/04/13 06:50:07;;;;;;;0.55;0.50;;;13.50;99.90;;;;;;5010582;28;20084;-64
2022/04/13 06:52:34;;;;;;;0.70;0.50;;;13.70;99.90;;;;;;4993129;28;20037;-64
2022/04/13 06:55:01;;;;;;;0.22;0.22;;;13.90;99.90;;;;;;5010477;28;20084;-64
2022/04/13 06:57:27;;;;;;;0.25;0.25;;;14.10;99.90;;;;;;4992529;28;20030;-63
2022/04/13 06:59:52;;;;;;;0.63;0.63;;;14.20;99.90;;;;;;4992816;28;20044;-63
2022/04/13 07:02:18;;;;;;;0.80;0.45;;;14.40;99.90;;;;;;5010651;28;20468;-64
2022/04/13 07:04:44;;;;;;;0.00;0.00;;;14.50;99.90;;;;;;5010888;28;20513;-64
2022/04/13 07:07:10;;;;;;;0.47;0.47;;;14.60;99.90;;;;;;4992579;28;20371;-64
2022/04/13 07:09:36;;;;;;;0.57;0.57;;;14.80;99.90;;;;;;5010411;28;20108;-63
2022/04/13 07:12:03;;;;;;;0.20;0.20;;;14.90;99.90;;;;;;5008986;28;20092;-64
2022/04/13 07:14:29;;;;;;;0.45;0.45;;;14.90;99.90;;;;;;5010448;28;20486;-64
2022/04/13 07:16:54;;;;;;;0.17;0.17;;;15.00;99.90;;;;;;4992560;28;20048;-63
2022/04/13 07:19:20;;;;;;;0.52;0.52;;;15.00;99.90;;;;;;5010031;28;20070;-64
2022/04/13 07:21:46;;;;;;;0.10;0.10;;;15.10;99.90;;;;;;4992929;28;20046;-64
2022/04/13 07:24:12;;;;;;;2.13;0.80;;;15.20;99.90;;;;;;4992791;28;20533;-63
2022/04/13 07:26:38;;;;;;;0.30;0.30;;;15.20;99.90;;;;;;4992533;28;20045;-63
2022/04/13 07:29:04;;;;;;;1.45;1.08;;;15.30;99.90;;;;;;4993105;28;20528;-62
2022/04/13 07:31:31;;;;;;;1.88;1.08;;;15.30;99.90;;;;;;4992644;28;20033;-63
2022/04/13 07:33:56;;;;;;;0.08;0.08;;;15.40;99.90;;;;;;5010198;28;20072;-63
2022/04/13 07:36:23;;;;;;;0.10;0.10;;;15.40;99.90;;;;;;5009988;28;20034;-63
2022/04/13 07:38:50;;;;;;;0.00;0.00;;;15.40;99.90;;;;;;5010195;28;20111;-63
2022/04/13 07:41:16;;;;;;;0.88;0.88;;;15.50;99.90;;;;;;5010213;28;20022;-63
2022/04/13 07:43:43;;;;;;;1.13;0.65;;;15.60;99.90;;;;;;5010233;28;20030;-64
2022/04/13 07:46:10;;;;;;;0.13;0.10;;;15.70;99.90;;;;;;5010696;28;20030;-64
2022/04/13 07:48:36;;;;;;;5.18;0.95;;;15.70;99.90;;;;;;4996144;28;20437;-63
2022/04/13 07:51:02;;;;;;;0.20;0.20;;;15.80;99.90;;;;;;5013916;28;20030;-64
2022/04/13 07:53:28;;;;;;;1.35;1.02;;;15.90;99.90;;;;;;5013506;28;20118;-64
2022/04/13 07:55:53;;;;;;;0.20;0.20;;;15.80;99.90;;;;;;5013672;28;20030;-63
2022/04/13 07:58:19;;;;;;;0.13;0.13;;;15.90;99.90;;;;;;4995013;28;20045;-64
2022/04/13 08:00:45;;;;;;;0.15;0.15;;;16.00;99.90;;;;;;4994380;28;20064;-64
2022/04/13 08:03:11;;;;;;;0.63;0.60;;;16.00;99.90;;;;;;4993934;28;20030;-64
2022/04/13 08:05:40;;;;;;;0.10;0.10;;;16.10;99.90;;;;;;4993934;28;20030;-64
2022/04/13 08:08:09;;;;;;;2.08;1.02;;;16.20;99.90;;;;;;4993649;28;20454;-64
2022/04/13 08:10:35;;;;;;;0.17;0.10;;;16.30;99.90;;;;;;4993768;28;20037;-64
2022/04/13 08:13:01;;;;;;;0.17;0.17;;;16.30;99.90;;;;;;4994092;28;20035;-64
2022/04/13 08:15:26;;;;;;;0.00;0.00;;;16.40;99.90;;;;;;4993895;28;20093;-64
2022/04/13 08:17:52;;;;;;;1.30;1.08;;;16.50;99.90;;;;;;4998767;28;20406;-63
2022/04/13 08:20:18;;;;;;;0.75;0.75;;;16.60;99.90;;;;;;5013015;28;20034;-64
2022/04/13 08:22:46;;;;;;;1.02;0.75;;;16.70;99.90;;;;;;5012784;28;20486;-64
2022/04/13 08:25:12;;;;;;;0.55;0.55;;;16.90;99.90;;;;;;4995485;28;20069;-64
2022/04/13 08:27:39;;;;;;;0.98;0.60;;;17.00;99.90;;;;;;5013002;28;20103;-64
2022/04/13 08:30:05;;;;;;;0.17;0.17;;;17.10;99.90;;;;;;4995737;28;20049;-65
2022/04/13 08:32:31;;;;;;;0.82;0.82;;;17.10;99.90;;;;;;5012954;28;20390;-64
2022/04/13 08:34:57;;;;;;;0.30;0.20;;;17.10;99.90;;;;;;5013378;28;20080;-64
2022/04/13 08:37:27;;;;;;;0.45;0.45;;;17.10;99.90;;;;;;5011949;28;20524;-64
2022/04/13 08:39:53;;;;;;;1.58;0.70;;;17.40;99.90;;;;;;5013230;28;20026;-64
2022/04/13 08:43:04;;;;;;;0.52;0.52;;;17.60;99.90;;;;;;5012803;28;20501;-64
2022/04/13 08:45:38;;;;;;;0.10;0.10;;;17.60;99.90;;;;;;4998061;28;20056;-64
2022/04/13 08:48:10;;;;;;;0.50;0.50;;;17.80;99.90;;;;;;4995250;28;20091;-63
2022/04/13 08:50:37;;;;;;;0.38;0.30;;;17.70;99.90;;;;;;4996060;28;20026;-63
2022/04/13 08:53:09;;;;;;;0.35;0.35;;;18.00;99.70;;;;;;4995424;28;20026;-64
2022/04/13 08:55:36;;;;;;;0.63;0.40;;;18.20;99.50;;;;;;4995796;28;20482;-64
2022/04/13 08:58:19;;;;;;;1.00;0.90;;;18.20;98.90;;;;;;4994467;28;20034;-64
2022/04/13 09:00:50;;;;;;;0.30;0.30;;;18.40;99.20;;;;;;4995335;28;20034;-64
2022/04/13 09:03:35;;;;;;;0.40;0.40;;;18.50;98.80;;;;;;4995299;28;20057;-64
2022/04/13 09:06:01;;;;;;;0.00;0.00;;;18.10;99.10;;;;;;4994773;28;20029;-63
2022/04/13 09:08:51;;;;;;;1.25;0.80;;;18.10;98.60;;;;;;4994644;28;20117;-64
2022/04/13 09:11:21;;;;;;;10.95;1.88;;;18.20;98.70;;;;;;4995610;28;20058;-64
2022/04/13 09:13:47;;;;;;;0.15;0.15;;;18.20;97.80;;;;;;4995291;28;20034;-65
2022/04/13 09:16:14;;;;;;;0.25;0.25;;;18.20;97.30;;;;;;5012174;28;20029;-65
2022/04/13 09:18:41;;;;;;;0.20;0.20;;;18.50;97.40;;;;;;4994892;28;20030;-64
2022/04/13 09:21:07;;;;;;;0.88;0.50;;;18.80;96.70;;;;;;4994670;28;20030;-65
2022/04/13 09:23:33;;;;;;;2.45;1.65;;;18.90;96.70;;;;;;5011890;28;20072;-63
2022/04/13 09:26:00;;;;;;;5.25;0.55;;;19.10;96.60;;;;;;5012113;28;20025;-63
2022/04/13 09:28:26;;;;;;;1.27;0.52;;;19.10;96.60;;;;;;4994351;28;20026;-63
2022/04/13 09:30:54;;;;;;;0.20;0.20;;;19.30;96.80;;;;;;5011949;28;20033;-63
2022/04/13 09:33:20;;;;;;;0.98;0.77;;;19.20;95.90;;;;;;5011968;28;20038;-62
2022/04/13 09:35:46;;;;;;;0.00;0.00;;;18.90;96.50;;;;;;5012049;28;20509;-63
2022/04/13 09:38:12;;;;;;;0.32;0.32;;;19.30;97.10;;;;;;5011835;28;20034;-63
2022/04/13 09:40:41;;;;;;;0.50;0.35;;;19.40;94.90;;;;;;4994333;28;20026;-63
2022/04/13 09:43:19;;;;;;;0.00;0.00;;;19.60;95.00;;;;;;4994480;28;20061;-63
2022/04/13 09:45:50;;;;;;;0.00;0.00;;;19.80;93.60;;;;;;4994690;28;20088;-63
2022/04/13 09:48:21;;;;;;;0.40;0.17;;;19.80;92.60;;;;;;4993650;28;20088;-64
2022/04/13 09:50:51;;;;;;;0.10;0.10;;;20.10;91.70;;;;;;5011261;28;20386;-64
2022/04/13 09:53:20;;;;;;;0.13;0.10;;;20.30;91.10;;;;;;5011251;28;20034;-64
2022/04/13 09:55:59;;;;;;;0.00;0.00;;;20.10;91.50;;;;;;4979955;28;20052;-64
2022/04/13 09:58:26;;;;;;;0.25;0.20;;;20.50;90.70;;;;;;4991371;28;20038;-64
2022/04/13 10:01:02;;;;;;;0.22;0.22;;;20.90;90.00;;;;;;4991921;28;20026;-64
2022/04/13 10:03:28;;;;;;;2.45;1.90;;;21.00;88.40;;;;;;4991635;28;20482;-64
2022/04/13 10:05:56;;;;;;;0.15;0.15;;;20.70;88.80;;;;;;4991460;28;20083;-64
2022/04/13 10:08:30;;;;;;;0.05;0.00;;;20.40;88.40;;;;;;4974060;28;20088;-64
2022/04/13 10:11:07;;;;;;;0.10;0.10;;;20.70;88.30;;;;;;4991383;28;20022;-64
2022/04/13 10:13:38;;;;;;;1.67;0.70;;;20.50;86.30;;;;;;4975079;28;20057;-64
2022/04/13 10:16:10;;;;;;;0.00;0.00;;;20.60;89.20;;;;;;4974300;28;20041;-64
2022/04/13 10:18:56;;;;;;;0.00;0.00;;;20.70;89.00;;;;;;5002616;28;20034;-64
2022/04/13 10:21:45;;;;;;;0.05;0.05;;;20.50;89.10;;;;;;5011159;28;20117;-63
2022/04/13 10:24:32;;;;;;;0.08;0.00;;;21.00;86.50;;;;;;5011315;28;20386;-64
2022/04/13 10:27:15;;;;;;;0.55;0.52;;;21.20;86.20;;;;;;5011013;28;20021;-64
2022/04/13 10:29:49;;;;;;;0.00;0.00;;;21.00;90.20;;;;;;4993721;28;20022;-64
2022/04/13 10:32:22;;;;;;;2.92;1.05;;;21.50;86.50;;;;;;5010929;28;20026;-64
2022/04/13 10:34:56;;;;;;;0.90;0.80;;;21.40;88.90;;;;;;4993549;28;20030;-63
2022/04/13 10:37:24;;;;;;;0.32;0.32;;;21.60;86.30;;;;;;5010256;28;20363;-64
2022/04/13 10:39:56;;;;;;;0.50;0.47;;;21.80;84.30;;;;;;4993260;28;20026;-64
2022/04/13 10:42:22;;;;;;;0.00;0.00;;;21.70;85.10;;;;;;5010484;28;20108;-64
2022/04/13 10:45:02;;;;;;;0.08;0.08;;;21.80;83.50;;;;;;5010829;28;20104;-64
2022/04/13 10:48:00;;;;;;;0.43;0.43;;;22.00;82.80;;;;;;4994049;28;20600;-64
2022/04/13 10:50:54;;;;;;;0.10;0.10;;;22.40;80.60;;;;;;4994118;28;20022;-64
2022/04/13 10:53:55;;;;;;;0.15;0.08;;;22.40;82.50;;;;;;4996293;28;20084;-64
2022/04/13 10:56:26;;;;;;;0.22;0.22;;;22.80;82.90;;;;;;4995651;28;20106;-64
2022/04/13 10:59:21;;;;;;;0.13;0.13;;;22.60;81.50;;;;;;5010591;28;20061;-64
2022/04/13 11:01:58;;;;;;;0.35;0.35;;;22.20;84.50;;;;;;4993390;28;20486;-63
2022/04/13 11:04:28;;;;;;;0.00;0.00;;;22.60;84.40;;;;;;4993166;28;20248;-64
2022/04/13 11:06:55;;;;;;;1.60;0.37;;;22.20;81.80;;;;;;5010083;28;20389;-64
2022/04/13 11:09:29;;;;;;;0.43;0.30;;;22.90;81.90;;;;;;4992930;28;20026;-65
2022/04/13 11:12:01;;;;;;;0.00;0.00;;;23.30;80.00;;;;;;4993831;28;20080;-64
2022/04/13 11:14:27;;;;;;;0.10;0.10;;;23.70;76.60;;;;;;5010761;28;20038;-64
2022/04/13 11:17:16;;;;;;;3.85;1.55;;;23.60;79.80;;;;;;5010117;28;20067;-64
2022/04/13 11:19:42;;;;;;;0.25;0.20;;;23.40;79.20;;;;;;5010038;28;20065;-64
2022/04/13 11:22:13;;;;;;;0.00;0.00;;;23.20;78.50;;;;;;5013581;28;20029;-64
2022/04/13 11:24:56;;;;;;;0.00;0.00;;;23.20;78.10;;;;;;5014159;28;20053;-64
2022/04/13 11:27:23;;;;;;;1.02;0.55;;;23.60;78.30;;;;;;4996760;28;20485;-64
2022/04/13 11:30:01;;;;;;;0.32;0.32;;;23.20;78.10;;;;;;5014074;28;20037;-64
2022/04/13 11:32:32;;;;;;;1.35;0.63;;;23.00;79.30;;;;;;4996424;28;20033;-64
2022/04/13 11:35:00;;;;;;;0.10;0.10;;;23.20;74.40;;;;;;5014227;28;20025;-64
2022/04/13 11:37:33;;;;;;;0.98;0.55;;;23.60;76.60;;;;;;5013741;28;20129;-64
2022/04/13 11:40:10;;;;;;;0.20;0.10;;;24.00;75.50;;;;;;5014189;28;20037;-64
2022/04/13 11:42:39;;;;;;;0.20;0.17;;;23.70;74.30;;;;;;4997445;28;20022;-64
2022/04/13 11:45:16;;;;;;;0.22;0.20;;;23.50;75.70;;;;;;5013967;28;20110;-65
2022/04/13 11:47:56;;;;;;;20.70;4.78;;;24.00;74.60;;;;;;4975861;28;20030;-64
2022/04/13 11:50:37;;;;;;;0.88;0.88;;;24.40;74.10;;;;;;4993472;28;20035;-64
2022/04/13 11:53:10;;;;;;;0.10;0.10;;;24.10;74.00;;;;;;4994217;28;20034;-63
2022/04/13 11:55:44;;;;;;;0.03;0.03;;;24.30;74.10;;;;;;4976834;28;20449;-64
2022/04/13 11:58:09;;;;;;;0.15;0.10;;;25.00;72.90;;;;;;4992353;28;20418;-64
2022/04/13 12:00:42;;;;;;;0.17;0.17;;;25.60;71.20;;;;;;4994202;28;20053;-64
2022/04/13 12:03:16;;;;;;;0.15;0.15;;;25.80;72.90;;;;;;4993852;28;20084;-63
2022/04/13 12:05:48;;;;;;;0.28;0.28;;;25.60;68.80;;;;;;4993658;28;20129;-63
2022/04/13 12:08:28;;;;;;;0.40;0.28;;;24.70;71.70;;;;;;4993739;28;20038;-63
2022/04/13 12:11:01;;;;;;;0.10;0.10;;;24.40;73.10;;;;;;4978308;28;20035;-63
2022/04/13 12:13:33;;;;;;;0.15;0.15;;;24.10;73.00;;;;;;4993031;28;20038;-63
2022/04/13 12:16:01;;;;;;;0.00;0.00;;;23.80;72.10;;;;;;4976947;28;20035;-63
2022/04/13 12:18:27;;;;;;;0.13;0.13;;;24.00;72.50;;;;;;4975933;28;20038;-63
2022/04/13 12:21:07;;;;;;;0.10;0.03;;;24.40;74.60;;;;;;4993963;28;20033;-64
2022/04/13 12:23:39;;;;;;;0.60;0.60;;;24.70;75.60;;;;;;4976760;28;20109;-65
2022/04/13 12:26:07;;;;;;;1.25;1.00;;;25.50;73.10;;;;;;4992342;28;20088;-64
2022/04/13 12:28:37;;;;;;;0.20;0.20;;;25.20;72.40;;;;;;4992163;28;20046;-63
2022/04/13 12:31:07;;;;;;;0.27;0.27;;;25.00;71.20;;;;;;4992595;28;20058;-63
2022/04/13 12:33:35;;;;;;;1.65;0.38;;;25.50;70.80;;;;;;4991468;28;20704;-64
2022/04/13 12:36:10;;;;;;;0.30;0.15;;;26.30;66.40;;;;;;4993125;28;20030;-63
2022/04/13 12:38:44;;;;;;;1.02;0.70;;;25.40;66.00;;;;;;4992211;28;20035;-64
2022/04/13 12:41:20;;;;;;;0.00;0.00;;;26.30;67.70;;;;;;4991861;28;20046;-64
2022/04/13 12:44:01;;;;;;;0.32;0.32;;;27.20;65.60;;;;;;4992285;28;20483;-63
2022/04/13 12:46:32;;;;;;;0.20;0.20;;;27.20;66.10;;;;;;4976006;28;20045;-64
2022/04/13 12:49:06;;;;;;;0.00;0.00;;;26.90;66.30;;;;;;4993450;28;20117;-63
2022/04/13 12:51:37;;;;;;;0.10;0.10;;;27.80;64.10;;;;;;4992855;28;20027;-63
2022/04/13 12:54:11;;;;;;;1.13;0.57;;;27.50;64.70;;;;;;4993099;28;20034;-63
2022/04/13 12:56:47;;;;;;;11.80;0.57;;;27.90;63.70;;;;;;4991407;28;20030;-63